James Reserve, California Weather observations

Data are for 10 minute period ending at time listed.
 Day   Time   Solar   Ave.   Ave.  Ave.  Vector  Max.   Baro.   Total    
  of    of     Rad.   Air    Rel.  Wind   Wind   Wind  Press.  Precip.   
Year   Day            Temp.  Hum.  Speed  Dir.   Gust                    
2017   (PST)  Kw/m2    F      %     mph   deg.    mph    mb.     in.     
-------------------------------------------------------------------------
  22   23:50   0.00   36.2    99    1.5    52     3.2   832.0    0.00 
  23    0:00   0.00   36.1    99    1.7    60     3.8   832.0    0.00 
  23    0:10   0.00   35.8    99    1.8    52     4.6   832.0    0.00 
  23    0:20   0.00   35.8    99    1.5    80     4.1   832.0    0.00 
  23    0:30   0.00   36.0    99    1.3    38     4.0   831.0    0.00 
  23    0:40   0.00   35.8    99    1.5    34     5.0   831.0    0.00 
  23    0:50   0.00   36.0    99    1.1    35     3.3   831.0    0.00 
  23    1:00   0.00   35.7    99    1.6    49     3.7   830.0    0.00 
  23    1:10   0.00   35.5    99    1.4    65     3.8   830.0    0.05 
  23    1:20   0.00   35.5    99    1.5    13     4.0   831.0    0.00 
  23    1:30   0.00   35.9    99    1.8    48     4.7   830.0    0.00 
  23    1:40   0.00   35.9    99    1.7    53     4.3   830.0    0.04 
  23    1:50   0.00   35.9    99    1.8    48     4.2   830.0    0.06 
  23    2:00   0.00   36.3    99    1.5    47     3.6   830.0    0.07 
  23    2:10   0.00   36.4    99    2.1    57     4.5   830.0    0.11 
  23    2:20   0.00   36.0    99    2.2    57     8.0   830.0    0.05 
  23    2:30   0.00   35.6    99    1.7    50     4.5   830.0    0.07 
  23    2:40   0.00   35.1    99    2.2    54     4.8   830.0    0.09 
  23    2:50   0.00   34.7    99    1.7    56     4.3   830.0    0.07 
  23    3:00   0.00   34.6    99    1.9    55     4.5   830.0    0.06 
  23    3:10   0.00   34.3    99    1.5    42     4.3   830.0    0.04 
  23    3:20   0.00   34.2    99    1.5    48     3.8   830.0    0.02 
  23    3:30   0.00   34.3    99    1.8    45     5.7   830.0    0.00 
  23    3:40   0.00   34.2    99    1.7    42     5.2   829.0    0.00 
  23    3:50   0.00   33.8    99    1.8    38     4.5   829.0    0.06 
  23    4:00   0.00   33.0    99    2.1    42     5.6   830.0    0.01 
  23    4:10   0.00   33.1    99    1.8    45     3.6   830.0    0.01 
  23    4:20   0.00   33.0    99    1.7    75     4.7   830.0    0.00 
  23    4:30   0.00   32.6    99    1.5    64     4.2   830.0    0.00 
  23    4:40   0.00   32.7    99    1.3    42     2.8   829.0    0.00 
  23    4:50   0.00   32.6    99    1.6    60     4.9   829.0    0.02 
  23    5:00   0.00   31.9   100    1.6    52     4.1   830.0    0.01 
  23    5:10   0.00   31.9   100    1.5    66     3.4   830.0    0.00 
  23    5:20   0.00   31.8   100    1.3    59     4.6   830.0    0.00 
  23    5:30   0.00   31.8   100    1.2    48     3.0   830.0    0.00 
  23    5:40   0.00   31.7   100    1.4    60     4.0   829.0    0.00 
  23    5:50   0.00   31.6   100    1.2    69     2.9   829.0    0.00 
  23    6:00   0.00   31.7   100    1.4    54     2.8   829.0    0.00 
  23    6:10   0.00   31.8   100    1.5    46     5.2   829.0    0.01 
  23    6:20   0.00   31.6   100    1.4    52     4.1   829.0    0.05 
  23    6:30   0.00   31.5   100    1.8    71     3.9   829.0    0.06 
  23    6:40   0.00   31.0   100    1.6    55     4.0   829.0    0.04 
  23    6:50   0.00   30.8   100    1.4    52     3.4   829.0    0.06 
  23    7:00   0.00   30.9   100    1.4    67     4.6   830.0    0.04 
  23    7:10   0.00   30.3   100    1.4    69     4.5   830.0    0.00 
  23    7:20   0.00   30.1   100    1.5    66     3.9   830.0    0.00 
  23    7:30   0.00   30.3   100    1.3    74     3.2   829.0    0.00 
  23    7:40   0.00   30.9   100    1.6    62     3.4   829.0    0.00 
  23    7:50   0.01   30.9   100    1.5    77     4.7   830.0    0.00 
  23    8:00   0.01   30.8   100    1.4    70     4.0   830.0    0.00 
  23    8:10   0.01   30.9   100    1.4    47     3.9   830.0    0.00 
  23    8:20   0.01   30.7   100    1.5    63     3.0   830.0    0.00 
  23    8:30   0.01   30.8   100    1.2    44     3.2   830.0    0.02 
  23    8:40   0.01   30.9   100    1.3    47     3.8   830.0    0.03 
  23    8:50   0.01   30.9   100    1.5    47     4.5   830.0    0.03 
  23    9:00   0.01   30.6   100    1.4    57     3.9   830.0    0.04 
  23    9:10   0.01   30.3   100    1.2    82     3.6   830.0    0.03 
  23    9:20   0.02   30.3   100    1.1    74     3.1   830.0    0.02 
  23    9:30   0.02   30.3   100    1.2    51     3.3   830.0    0.01 
  23    9:40   0.02   30.4   100    1.5    67     4.4   830.0    0.01 
  23    9:50   0.03   30.5   100    1.5    58     4.5   830.0    0.00 
  23   10:00   0.03   30.7   100    1.5    65     3.2   830.0    0.00 
  23   10:10   0.04   30.9   100    1.6    57     4.0   830.0    0.00 
  23   10:20   0.09   31.1   100    2.1    50     5.2   830.0    0.00 
  23   10:30   0.07   30.9   100    1.4    52     3.4   830.0    0.00 
  23   10:40   0.04   30.5   100    1.9    56     4.5   830.0    0.00 
  23   10:50   0.05   30.4   100    1.6    86     5.0   830.0    0.00 
  23   11:00   0.04   30.7   100    1.9    64     5.7   830.0    0.00 
  23   11:10   0.03   30.8   100    1.6    48     3.5   829.0    0.00 
  23   11:20   0.02   30.7   100    1.8    48     4.3   829.0    0.02 
  23   11:30   0.01   30.2   100    1.9    54     5.0   829.0    0.04 
  23   11:40   0.01   29.9   100    1.5    53     3.3   829.0    0.06 
  23   11:50   0.02   29.9   100    1.5    55     3.2   829.0    0.07 
  23   12:00   0.03   29.5   100    1.4    70     4.2   829.0    0.07 
  23   12:10   0.03   29.7   100    1.4    50     3.7   828.0    0.10 
  23   12:20   0.03   29.8   100    1.2    56     2.5   828.0    0.01 
  23   12:30   0.03   29.6   100    1.3    64     4.4   828.0    0.00 
  23   12:40   0.04   29.5   100    1.4    82     3.4   828.0    0.00 
  23   12:50   0.04   29.4   100    1.2    56     3.7   828.0    0.00 
  23   13:00   0.03   29.3   100    0.7    75     1.8   828.0    0.00 
  23   13:10   0.02   29.3   100    0.9    20     2.7   828.0    0.00 
  23   13:20   0.01   29.5   100    0.9    65     2.1   827.0    0.02 
  23   13:30   0.02   29.5   100    1.2    38     2.4   827.0    0.05 
  23   13:40   0.02   29.5   100    0.8    70     2.1   827.0    0.06 
  23   13:50   0.02   29.5   100    1.0    60     2.6   827.0    0.08 
  23   14:00   0.04   29.2   100    1.5    58     4.5   827.0    0.09 
  23   14:10   0.03   28.6   100    1.1    90     3.0   827.0    0.05 
  23   14:20   0.02   28.4   100    1.1    96     5.3   827.0    0.02 
  23   14:30   0.02   28.6   100    2.6    89    28.1   828.0    0.00 
  23   14:40   0.02   28.6   100    1.0    34     3.1   828.0    0.00 
  23   14:50   0.03   28.5   100    1.1    85     2.8   828.0    0.00 
  23   15:00   0.02   28.5   100    1.1    61     2.2   827.0    0.01 
  23   15:10   0.02   28.5   100    1.2    69     2.8   827.0    0.00 
  23   15:20   0.03   28.5   100    0.9    82     2.1   827.0    0.00 
  23   15:30   0.01   28.5   100    0.6    71     1.7   827.0    0.00 
  23   15:40   0.01   28.4   100    0.6    51     1.6   827.0    0.03 
  23   15:50   0.01   28.7   100    0.7    57     2.1   827.0    0.06 
  23   16:00   0.01   28.3    99    1.0    48     2.4   827.0    0.01 
  23   16:10   0.01   27.8    99    0.9    88     2.9   827.0    0.00 
  23   16:20   0.01   27.8    99    0.8    28     1.8   827.0    0.01 
  23   16:30   0.01   28.0    99    0.8    22     2.3   827.0    0.00 
  23   16:40   0.01   28.2    99    0.7    26     1.9   827.0    0.00 
  23   16:50   0.01   28.1    99    0.7    92     1.6   827.0    0.00 
  23   17:00   0.01   28.1    99    0.8   111     2.1   827.0    0.00 
  23   17:10   0.00   28.0    99    0.5    76     1.7   827.0    0.00 
  23   17:20   0.00   28.1    99    0.5    98     2.3   827.0    0.00 
  23   17:30   0.00   28.1    99    0.6    70     1.7   827.0    0.00 
  23   17:40   0.00   28.2    99    0.6    74     1.3   827.0    0.00 
  23   17:50   0.00   28.2    99    0.7    68     2.4   827.0    0.00 
  23   18:00   0.00   28.1    99    0.7    60     2.0   827.0    0.00 
  23   18:10   0.00   28.0    99    0.8   106     2.4   827.0    0.00 
  23   18:20   0.00   27.9    99    0.7    62     1.6   827.0    0.00 
  23   18:30   0.00   28.1    99    0.7    56     1.5   827.0    0.00 
  23   18:40   0.00   28.2    99    0.8    60     2.0   827.0    0.00 
  23   18:50   0.00   28.2    99    1.1    79     2.3   827.0    0.00 
  23   19:00   0.00   28.2    99    0.8    71     1.9   828.0    0.00 
  23   19:10   0.00   28.3    99    0.8    81     1.7   828.0    0.00 
  23   19:20   0.00   28.2    99    0.9    72     1.8   828.0    0.00 
  23   19:30   0.00   28.2    99    0.8    56     2.0   828.0    0.00 
  23   19:40   0.00   28.1    99    1.0    73     2.6   828.0    0.00 
  23   19:50   0.00   28.1    99    0.7    35     1.9   828.0    0.00 
  23   20:00   0.00   28.1    99    0.7    79     2.2   828.0    0.00 
  23   20:10   0.00   28.2    99    0.9    85     2.4   828.0    0.00 
  23   20:20   0.00   28.2    99    0.7    78     1.9   828.0    0.00 
  23   20:30   0.00   28.1    99    0.6    68     1.8   828.0    0.00 
  23   20:40   0.00   28.0    99    0.8    65     1.6   828.0    0.00 
  23   20:50   0.00   27.8    99    0.5   101     1.7   828.0    0.00 
  23   21:00   0.00   27.7    99    0.4    73     0.8   828.0    0.00 
  23   21:10   0.00   27.6    99    0.3   117     0.9   828.0    0.00 
  23   21:20   0.00   27.5    99    0.3   185     0.7   828.0    0.00 
  23   21:30   0.00   27.4    99    0.3   250     1.4   828.0    0.00 
  23   21:40   0.00   27.5    99    0.5    41     1.0   828.0    0.00 
  23   21:50   0.00   27.5    99    0.7   111     1.3   828.0    0.00 
  23   22:00   0.00   27.4    99    0.5   169     1.6   828.0    0.00 
  23   22:10   0.00   27.4    99    0.4   185     2.0   829.0    0.00 
  23   22:20   0.00   27.4    99    0.5    90     0.9   829.0    0.00 
  23   22:30   0.00   27.4    99    0.4    80     0.9   829.0    0.00 
  23   22:40   0.00   27.3    99    0.3    78     0.6   829.0    0.00 
  23   22:50   0.00   27.1    99    0.3    15     0.6   829.0    0.00 
  23   23:00   0.00   27.2    99    0.3    99     0.8   829.0    0.00 
  23   23:10   0.00   27.2    99    0.5   325     1.0   829.0    0.00 
  23   23:20   0.00   27.1    99    0.5   115     1.3   829.0    0.00 
  23   23:30   0.00   27.1    99    0.5    79     1.2   829.0    0.00 
  23   23:40   0.00   27.2    99    0.7    84     1.3   829.0    0.00 

Return to James Reserve graphs page.


Western Regional Climate Center,wrcc@dri.edu